createdAt,value
2014-07-28T05:01:55.472Z,11
2014-07-28T05:02:13.050Z,14
2014-07-28T05:02:30.630Z,14
2014-07-28T05:02:48.224Z,14
2014-07-28T05:03:05.802Z,14
2014-07-28T05:03:24.021Z,13
2014-07-28T05:03:42.242Z,14
2014-07-28T05:03:59.195Z,14
2014-07-28T05:04:16.914Z,14
2014-07-28T05:04:34.510Z,14
2014-07-28T05:04:51.464Z,14
2014-07-28T05:05:09.042Z,14
2014-07-28T05:05:26.635Z,14
2014-07-28T05:05:44.841Z,15
2014-07-28T05:06:01.809Z,15
2014-07-28T05:06:19.387Z,14
2014-07-28T05:06:37.608Z,14
2014-07-28T05:06:55.827Z,14
2014-07-28T05:07:14.046Z,15
2014-07-28T05:07:32.265Z,15
2014-07-28T05:07:50.484Z,15
2014-07-28T05:08:08.062Z,15
2014-07-28T05:08:26.281Z,15
2014-07-28T05:08:43.252Z,15
2014-07-28T05:09:00.830Z,15
2014-07-28T05:09:17.158Z,15
2014-07-28T05:09:35.379Z,15
2014-07-28T05:09:53.598Z,15
2014-07-28T05:10:40.662Z,15
2014-07-28T05:10:58.881Z,15
2014-07-28T05:11:16.459Z,15
2014-07-28T05:11:34.680Z,15
2014-07-28T05:11:51.648Z,16
2014-07-28T05:12:07.977Z,16
2014-07-28T05:12:26.273Z,16
2014-07-28T05:12:43.244Z,16
2014-07-28T05:13:01.604Z,16
2014-07-28T05:13:18.572Z,16
2014-07-28T05:13:34.902Z,16
2014-07-28T05:13:52.496Z,15
2014-07-28T05:14:10.090Z,15
2014-07-28T05:14:27.684Z,15
2014-07-28T05:14:45.889Z,15
2014-07-28T05:15:04.108Z,15
2014-07-28T05:15:23.404Z,15
2014-07-28T05:15:40.999Z,15
2014-07-28T05:15:59.359Z,15
2014-07-28T05:16:17.577Z,15
2014-07-28T05:16:35.798Z,15
2014-07-28T05:16:54.017Z,16
2014-07-28T05:17:12.236Z,16
2014-07-28T05:17:30.439Z,16
2014-07-28T05:17:48.034Z,16
2014-07-28T05:18:05.628Z,16
2014-07-28T05:18:23.847Z,15
2014-07-28T05:18:42.069Z,15
2014-07-28T05:19:00.272Z,15
2014-07-28T05:19:17.866Z,15
2014-07-28T05:19:35.444Z,15
2014-07-28T05:19:53.663Z,15
2014-07-28T05:20:11.257Z,15
2014-07-28T05:20:29.476Z,15
2014-07-28T05:20:47.073Z,15
2014-07-28T05:21:04.651Z,15
2014-07-28T05:21:22.370Z,15
2014-07-28T05:21:39.963Z,15
2014-07-28T05:21:56.917Z,15
2014-07-28T05:22:13.886Z,15
2014-07-28T05:22:32.105Z,16
2014-07-28T05:22:49.686Z,16
2014-07-28T05:23:07.920Z,16
2014-07-28T05:23:26.124Z,16
2014-07-28T05:23:44.343Z,16
2014-07-28T05:24:01.953Z,16
2014-07-28T05:24:20.156Z,16
2014-07-28T05:24:37.750Z,16
2014-07-28T05:24:54.721Z,16
2014-07-28T05:25:11.674Z,16
2014-07-28T05:25:29.268Z,17
2014-07-28T05:25:46.863Z,17
2014-07-28T05:26:04.457Z,17
2014-07-28T05:26:22.863Z,17
2014-07-28T05:26:40.629Z,17
2014-07-28T05:26:58.850Z,17
2014-07-28T05:27:16.444Z,17
2014-07-28T05:27:33.397Z,17
2014-07-28T05:27:51.133Z,18
2014-07-28T05:28:08.726Z,18
2014-07-28T05:28:26.929Z,18
2014-07-28T05:28:45.164Z,18
2014-07-28T05:29:02.744Z,19
2014-07-28T05:29:20.963Z,19
2014-07-28T05:29:39.181Z,19
2014-07-28T05:29:57.402Z,19
2014-07-28T05:30:13.871Z,19
2014-07-28T05:30:30.840Z,19
2014-07-28T05:30:49.043Z,19
2014-07-28T05:31:06.639Z,19
2014-07-28T05:31:23.607Z,19
2014-07-28T05:31:41.185Z,19
2014-07-28T05:31:58.781Z,19
2014-07-28T05:32:16.375Z,19
2014-07-28T05:32:34.578Z,20
2014-07-28T05:32:52.187Z,20
2014-07-28T05:33:10.393Z,20
2014-07-28T05:33:27.986Z,20
2014-07-28T05:33:45.580Z,20
2014-07-28T05:34:03.801Z,20
2014-07-28T05:34:22.020Z,20
2014-07-28T05:34:38.973Z,21
2014-07-28T05:34:57.191Z,21
2014-07-28T05:35:15.537Z,21
2014-07-28T05:35:33.756Z,21
2014-07-28T05:35:50.709Z,21
2014-07-28T05:36:08.930Z,21
2014-07-28T05:36:26.649Z,21
2014-07-28T05:36:44.883Z,21
2014-07-28T05:37:02.479Z,21
2014-07-28T05:37:20.682Z,21
2014-07-28T05:37:38.901Z,21
2014-07-28T05:37:56.494Z,21
2014-07-28T05:38:14.090Z,21
2014-07-28T05:38:32.293Z,21
2014-07-28T05:38:48.637Z,21
2014-07-28T05:39:06.857Z,21
2014-07-28T05:39:25.075Z,21
2014-07-28T05:39:42.044Z,21
2014-07-28T05:39:59.779Z,21
2014-07-28T05:40:17.360Z,21
2014-07-28T05:40:34.313Z,21
2014-07-28T05:40:51.907Z,21
2014-07-28T05:41:08.251Z,21
2014-07-28T05:41:26.611Z,21
2014-07-28T05:41:44.189Z,21
2014-07-28T05:42:01.158Z,21
2014-07-28T05:42:18.754Z,21
2014-07-28T05:42:36.348Z,21
2014-07-28T05:42:53.926Z,21
2014-07-28T05:43:12.147Z,21
2014-07-28T05:43:29.725Z,21
2014-07-28T05:43:46.694Z,20
2014-07-28T05:44:03.647Z,20
2014-07-28T05:44:21.868Z,20
2014-07-28T05:44:40.086Z,20
2014-07-28T05:44:57.055Z,19
2014-07-28T05:45:15.275Z,19
2014-07-28T05:45:32.853Z,19
2014-07-28T05:45:49.822Z,19
2014-07-28T05:46:07.400Z,19
2014-07-28T05:46:24.996Z,19
2014-07-28T05:46:43.214Z,18
2014-07-28T05:47:00.183Z,18
2014-07-28T05:47:17.138Z,18
2014-07-28T05:47:35.341Z,18
2014-07-28T05:47:53.701Z,18
2014-07-28T05:48:10.654Z,18
2014-07-28T05:48:28.875Z,18
2014-07-28T05:48:46.468Z,17
2014-07-28T05:49:04.062Z,18
2014-07-28T05:49:21.642Z,17
2014-07-28T05:49:39.877Z,18
2014-07-28T05:49:56.830Z,17
2014-07-28T05:50:14.441Z,17
2014-07-28T05:50:32.644Z,17
2014-07-28T05:50:50.238Z,17
2014-07-28T05:51:07.207Z,18
2014-07-28T05:51:23.538Z,18
2014-07-28T05:51:41.757Z,18
2014-07-28T05:51:59.975Z,18
2014-07-28T05:52:17.554Z,18
2014-07-28T05:52:35.149Z,17
2014-07-28T05:52:52.727Z,14
2014-07-28T05:53:09.196Z,17
2014-07-28T05:53:27.433Z,17
2014-07-28T05:53:45.636Z,17
2014-07-28T05:54:02.729Z,17
2014-07-28T05:54:20.324Z,17
2014-07-28T05:54:37.902Z,17
2014-07-28T05:54:55.902Z,17
2014-07-28T05:55:13.387Z,17
2014-07-28T05:55:30.342Z,17
2014-07-28T05:55:47.936Z,17
2014-07-28T05:56:05.529Z,17
2014-07-28T05:56:23.123Z,17
2014-07-28T05:56:41.469Z,17
2014-07-28T05:56:59.688Z,17
2014-07-28T05:57:17.281Z,16
2014-07-28T05:57:34.878Z,16
2014-07-28T05:57:51.847Z,16
2014-07-28T05:58:08.800Z,17
2014-07-28T05:58:26.409Z,17
2014-07-28T05:58:43.988Z,17
2014-07-28T05:59:01.567Z,17
2014-07-28T05:59:19.801Z,17
2014-07-28T05:59:37.381Z,17
2014-07-28T05:59:54.959Z,17
2014-07-28T06:00:12.553Z,17
2014-07-28T06:00:29.647Z,17
2014-07-28T06:00:47.852Z,17
2014-07-28T06:01:05.446Z,18
2014-07-28T06:01:23.039Z,18
2014-07-28T06:01:41.260Z,18
2014-07-28T06:01:59.479Z,18
2014-07-28T06:02:17.838Z,18
2014-07-28T06:02:35.418Z,18
2014-07-28T06:02:53.012Z,19
2014-07-28T06:03:09.340Z,19
2014-07-28T06:03:26.934Z,19
2014-07-28T06:03:43.905Z,19
2014-07-28T06:04:01.483Z,20
2014-07-28T06:04:18.452Z,20
2014-07-28T06:04:36.030Z,20
2014-07-28T06:04:53.000Z,20
2014-07-28T06:05:11.219Z,21
2014-07-28T06:05:28.813Z,23
2014-07-28T06:05:47.034Z,23
2014-07-28T06:06:04.612Z,22
2014-07-28T06:06:22.831Z,20
2014-07-28T06:06:39.784Z,19
2014-07-28T06:06:58.004Z,19
2014-07-28T06:07:16.239Z,19
2014-07-28T06:07:33.817Z,19
2014-07-28T06:07:51.538Z,18
2014-07-28T06:08:09.756Z,18
2014-07-28T06:08:27.991Z,18
2014-07-28T06:08:44.961Z,17
2014-07-28T06:09:02.539Z,17
2014-07-28T06:09:20.132Z,17
2014-07-28T06:09:38.367Z,17
2014-07-28T06:09:55.947Z,16
2014-07-28T06:10:14.166Z,16
2014-07-28T06:10:32.384Z,16
2014-07-28T06:10:50.606Z,16
2014-07-28T06:11:07.559Z,16
2014-07-28T06:11:25.794Z,15
2014-07-28T06:11:42.747Z,16
2014-07-28T06:11:59.718Z,16
2014-07-28T06:12:18.061Z,16
2014-07-28T06:12:36.280Z,16
2014-07-28T06:12:53.875Z,16
2014-07-28T06:13:12.094Z,16
2014-07-28T06:13:29.672Z,17
2014-07-28T06:13:47.890Z,17
2014-07-28T06:14:04.878Z,17
2014-07-28T06:14:22.456Z,17
2014-07-28T06:14:40.050Z,17
2014-07-28T06:14:57.628Z,18
2014-07-28T06:15:15.849Z,18
2014-07-28T06:15:33.442Z,18
2014-07-28T06:15:49.770Z,18
2014-07-28T06:16:07.366Z,19
2014-07-28T06:16:25.710Z,19
2014-07-28T06:16:43.304Z,19
2014-07-28T06:17:01.524Z,19
2014-07-28T06:17:19.118Z,19
2014-07-28T06:17:36.712Z,19
2014-07-28T06:17:54.931Z,19
2014-07-28T06:18:12.650Z,19
2014-07-28T06:18:30.229Z,19
2014-07-28T06:18:47.963Z,19
2014-07-28T06:19:05.544Z,20
2014-07-28T06:19:23.138Z,20
2014-07-28T06:19:41.357Z,20
2014-07-28T06:19:58.950Z,20
2014-07-28T06:20:17.171Z,20
2014-07-28T06:20:35.390Z,20
2014-07-28T06:20:53.609Z,21
2014-07-28T06:21:11.829Z,21
2014-07-28T06:21:30.048Z,21
2014-07-28T06:21:48.282Z,21
2014-07-28T06:22:05.877Z,22
2014-07-28T06:22:24.096Z,22
2014-07-28T06:22:41.065Z,22
2014-07-28T06:22:58.658Z,22
2014-07-28T06:23:16.239Z,23
2014-07-28T06:23:33.832Z,23
2014-07-28T06:23:50.801Z,23
2014-07-28T06:24:09.037Z,23
2014-07-28T06:24:26.631Z,23
2014-07-28T06:24:42.959Z,23
2014-07-28T06:25:01.178Z,23
2014-07-28T06:25:19.400Z,24
2014-07-28T06:25:37.619Z,24
2014-07-28T06:25:55.212Z,24
2014-07-28T06:26:12.181Z,24
2014-07-28T06:26:29.761Z,23
2014-07-28T06:26:47.371Z,23
2014-07-28T06:27:04.949Z,23
2014-07-28T06:27:23.168Z,23
2014-07-28T06:27:41.372Z,23
2014-07-28T06:27:58.340Z,23
2014-07-28T06:28:16.543Z,23
2014-07-28T06:28:34.140Z,22
2014-07-28T06:28:53.296Z,22
2014-07-28T06:29:11.500Z,22
2014-07-28T06:29:29.094Z,22
2014-07-28T06:29:46.688Z,22
2014-07-28T06:30:04.282Z,22
2014-07-28T06:30:21.860Z,22
2014-07-28T06:30:39.456Z,22
2014-07-28T06:30:56.409Z,22
2014-07-28T06:31:14.643Z,21
2014-07-28T06:31:32.365Z,21
2014-07-28T06:31:50.584Z,21
2014-07-28T06:32:08.162Z,21
2014-07-28T06:32:26.397Z,21
2014-07-28T06:32:43.350Z,21
2014-07-28T06:33:01.085Z,20
2014-07-28T06:33:17.413Z,20
2014-07-28T06:33:35.634Z,20
2014-07-28T06:33:53.837Z,19
2014-07-28T06:34:10.805Z,19
2014-07-28T06:34:28.401Z,19
2014-07-28T06:34:45.995Z,18
2014-07-28T06:35:02.964Z,18
2014-07-28T06:35:20.542Z,18
2014-07-28T06:35:38.763Z,18
2014-07-28T06:35:56.356Z,18
2014-07-28T06:36:13.950Z,18
2014-07-28T06:36:32.155Z,18
2014-07-28T06:36:49.124Z,19
2014-07-28T06:37:06.718Z,19
2014-07-28T06:37:24.921Z,20
2014-07-28T06:37:42.517Z,20
2014-07-28T06:38:00.142Z,20
2014-07-28T06:38:18.345Z,20
2014-07-28T06:38:36.565Z,20
2014-07-28T06:38:54.159Z,20
2014-07-28T06:39:11.737Z,20
2014-07-28T06:39:29.331Z,20
2014-07-28T06:39:47.676Z,20
2014-07-28T06:40:05.270Z,19
2014-07-28T06:40:20.973Z,19
2014-07-28T06:40:38.568Z,19
2014-07-28T06:40:56.787Z,19
2014-07-28T06:41:14.365Z,18
2014-07-28T06:41:31.961Z,18
2014-07-28T06:41:50.180Z,18
2014-07-28T06:42:07.758Z,18
2014-07-28T06:42:56.197Z,17
2014-07-28T06:43:14.401Z,16
2014-07-28T06:43:31.996Z,16
2014-07-28T06:43:49.606Z,16
2014-07-28T06:44:07.184Z,16
2014-07-28T06:44:24.778Z,15
2014-07-28T06:44:41.748Z,15
2014-07-28T06:44:59.342Z,15
2014-07-28T06:45:16.311Z,15
2014-07-28T06:45:34.532Z,15
2014-07-28T06:45:52.750Z,14
2014-07-28T06:46:10.328Z,14
2014-07-28T06:46:27.922Z,14
2014-07-28T06:46:45.643Z,15
2014-07-28T06:47:03.237Z,15
2014-07-28T06:47:20.815Z,15
2014-07-28T06:47:38.411Z,14
2014-07-28T06:47:56.629Z,13
2014-07-28T06:48:14.848Z,14
2014-07-28T06:48:31.319Z,13
2014-07-28T06:48:49.678Z,13
2014-07-28T06:49:07.272Z,13
2014-07-28T06:49:24.866Z,13
2014-07-28T06:49:43.086Z,13
2014-07-28T06:50:00.040Z,12
2014-07-28T06:50:16.993Z,12
2014-07-28T06:50:34.713Z,12
2014-07-28T06:50:52.323Z,11
2014-07-28T06:51:10.042Z,10
2014-07-28T06:51:26.995Z,10
2014-07-28T06:51:43.950Z,10
2014-07-28T06:52:01.544Z,10
2014-07-28T06:52:19.762Z,9
2014-07-28T06:52:37.373Z,10
2014-07-28T06:52:54.951Z,9
2014-07-28T06:53:12.529Z,9
2014-07-28T06:53:30.109Z,9
2014-07-28T06:53:48.328Z,9
2014-07-28T06:54:06.547Z,9
2014-07-28T06:54:23.500Z,9
